createdAt,value
2018-06-25T00:00:39.474Z,17.55
2018-06-25T00:01:39.424Z,17.56
2018-06-25T00:02:39.394Z,17.57
2018-06-25T00:03:39.425Z,17.59
2018-06-25T00:04:39.488Z,17.6
2018-06-25T00:05:39.406Z,17.64
2018-06-25T00:06:39.404Z,17.65
2018-06-25T00:07:39.406Z,17.65
2018-06-25T00:08:39.446Z,17.62
2018-06-25T00:09:39.385Z,17.63
2018-06-25T00:10:39.376Z,17.57
2018-06-25T00:11:39.391Z,17.6
2018-06-25T00:12:39.388Z,17.6
2018-06-25T00:13:39.491Z,17.59
2018-06-25T00:14:39.374Z,17.56
2018-06-25T00:15:39.404Z,17.58
2018-06-25T00:16:39.388Z,17.54
2018-06-25T00:17:39.403Z,17.53
2018-06-25T00:18:39.393Z,17.48
2018-06-25T00:19:39.420Z,17.46
2018-06-25T00:20:39.393Z,17.47
2018-06-25T00:21:39.401Z,17.46
2018-06-25T00:22:39.418Z,17.5
2018-06-25T00:23:39.409Z,17.48
2018-06-25T00:24:39.391Z,17.5
2018-06-25T00:25:39.484Z,17.52
2018-06-25T00:26:39.387Z,17.52
2018-06-25T00:27:39.392Z,17.52
2018-06-25T00:28:39.387Z,17.52
2018-06-25T00:29:39.459Z,17.54
2018-06-25T00:30:39.427Z,17.53
2018-06-25T00:31:39.394Z,17.55
2018-06-25T00:32:39.392Z,17.52
2018-06-25T00:33:39.453Z,17.55
2018-06-25T00:34:39.474Z,17.56
2018-06-25T00:35:39.490Z,17.57
2018-06-25T00:36:39.416Z,17.56
2018-06-25T00:37:39.423Z,17.46
2018-06-25T00:38:39.435Z,17.48
2018-06-25T00:39:39.601Z,17.45
2018-06-25T00:40:39.523Z,17.42
2018-06-25T00:41:39.447Z,17.39
2018-06-25T00:42:39.440Z,17.37
2018-06-25T00:43:39.402Z,17.4
2018-06-25T00:44:39.457Z,17.37
2018-06-25T00:45:39.398Z,17.36
2018-06-25T00:46:39.453Z,17.38
2018-06-25T00:47:39.491Z,17.34
2018-06-25T00:48:39.583Z,17.29
2018-06-25T00:49:39.418Z,17.34
2018-06-25T00:50:39.608Z,17.36
2018-06-25T00:51:39.447Z,17.36
2018-06-25T00:52:39.436Z,17.35
2018-06-25T00:53:39.458Z,17.37
2018-06-25T00:54:39.496Z,17.34
2018-06-25T00:55:39.387Z,17.36
2018-06-25T00:56:39.450Z,17.34
2018-06-25T00:57:39.466Z,17.36
2018-06-25T00:58:39.676Z,17.28
2018-06-25T00:59:39.546Z,17.27
2018-06-25T01:00:39.588Z,17.26
2018-06-25T01:01:40.533Z,17.21
2018-06-25T01:02:39.429Z,17.22
2018-06-25T01:03:39.435Z,17.21
2018-06-25T01:04:39.797Z,17.22
2018-06-25T01:05:39.440Z,17.24
2018-06-25T01:06:39.518Z,17.25
2018-06-25T01:07:39.447Z,17.19
2018-06-25T01:08:39.448Z,17.13
2018-06-25T01:09:39.439Z,17.13
2018-06-25T01:10:39.472Z,17.12
2018-06-25T01:11:39.440Z,17.1
2018-06-25T01:12:39.543Z,17.13
2018-06-25T01:13:39.439Z,17.12
2018-06-25T01:14:39.419Z,17.16
2018-06-25T01:15:39.491Z,17.16
2018-06-25T01:16:39.442Z,17.16
2018-06-25T01:17:39.440Z,17.13
2018-06-25T01:18:39.439Z,17.15
2018-06-25T01:19:39.518Z,17.17
2018-06-25T01:20:39.573Z,17.17
2018-06-25T01:21:39.560Z,17.18
2018-06-25T01:22:39.633Z,17.17
2018-06-25T01:23:39.514Z,17.16
2018-06-25T01:24:39.596Z,17.14
2018-06-25T01:25:39.459Z,17.08
2018-06-25T01:26:39.444Z,17.14
2018-06-25T01:27:39.443Z,17.16
2018-06-25T01:28:39.469Z,17.09
2018-06-25T01:29:39.454Z,17.07
2018-06-25T01:30:39.505Z,17.09
2018-06-25T01:31:39.516Z,17.09
2018-06-25T01:32:39.433Z,17.13
2018-06-25T01:33:39.448Z,17.13
2018-06-25T01:34:39.471Z,17.13
2018-06-25T01:35:39.455Z,17.12
2018-06-25T01:36:39.426Z,17.14
2018-06-25T01:37:39.426Z,17.1
2018-06-25T01:38:39.443Z,17.12
2018-06-25T01:39:39.498Z,17.13
2018-06-25T01:40:39.453Z,17.11
2018-06-25T01:41:39.454Z,17.11
2018-06-25T01:42:39.471Z,17.08
2018-06-25T01:43:39.607Z,17.07
2018-06-25T01:44:39.479Z,17.04
2018-06-25T01:45:39.487Z,17.07
2018-06-25T01:46:39.487Z,17.06
2018-06-25T01:47:39.531Z,17.07
2018-06-25T01:48:39.461Z,17.08
2018-06-25T01:49:39.481Z,17.08
2018-06-25T01:50:39.490Z,17.06
2018-06-25T01:51:39.465Z,17.05
2018-06-25T01:52:39.480Z,17.04
2018-06-25T01:53:39.567Z,17.02
2018-06-25T01:54:39.470Z,17.02
2018-06-25T01:55:39.487Z,17
2018-06-25T01:56:39.450Z,16.99
2018-06-25T01:57:39.616Z,16.95
2018-06-25T01:58:39.604Z,16.89
2018-06-25T01:59:39.484Z,16.86
2018-06-25T02:00:39.516Z,16.83
2018-06-25T02:01:39.479Z,16.88
2018-06-25T02:02:39.479Z,16.89
2018-06-25T02:03:39.516Z,16.93
2018-06-25T02:04:39.447Z,16.94
2018-06-25T02:05:39.473Z,16.94
2018-06-25T02:06:39.981Z,16.94
2018-06-25T02:07:39.455Z,16.94
2018-06-25T02:08:39.538Z,16.95
2018-06-25T02:09:39.531Z,16.93
2018-06-25T02:10:39.520Z,16.94
2018-06-25T02:11:39.465Z,16.97
2018-06-25T02:12:39.573Z,16.97
2018-06-25T02:13:39.464Z,17
2018-06-25T02:14:39.576Z,17.03
2018-06-25T02:15:39.641Z,17.04
2018-06-25T02:16:39.535Z,17.03
2018-06-25T02:17:39.489Z,17.01
2018-06-25T02:18:39.491Z,17.04
2018-06-25T02:19:39.546Z,17.05
2018-06-25T02:20:39.485Z,17.05
2018-06-25T02:21:40.181Z,17.01
2018-06-25T02:22:39.640Z,17.04
2018-06-25T02:23:39.538Z,17.06
2018-06-25T02:24:39.485Z,17.04
2018-06-25T02:25:39.523Z,17.04
2018-06-25T02:26:39.508Z,17.06
2018-06-25T02:27:39.471Z,17.07
2018-06-25T02:28:39.529Z,17.07
2018-06-25T02:29:39.483Z,17.06
2018-06-25T02:30:39.544Z,17.04
2018-06-25T02:31:39.487Z,17.02
2018-06-25T02:32:39.536Z,17.01
2018-06-25T02:33:39.516Z,17.01
2018-06-25T02:34:39.654Z,17.01
2018-06-25T02:35:39.523Z,17.02
2018-06-25T02:36:39.500Z,17.03
2018-06-25T02:37:39.490Z,17.04
2018-06-25T02:38:40.220Z,17.06
2018-06-25T02:39:39.495Z,17.05
2018-06-25T02:40:39.487Z,17.04
2018-06-25T02:41:39.531Z,17.03
2018-06-25T02:42:39.536Z,17.03
2018-06-25T02:43:39.531Z,17.06
2018-06-25T02:44:39.521Z,17.08
2018-06-25T02:45:39.496Z,17.06
2018-06-25T02:46:39.528Z,17.07
2018-06-25T02:47:39.506Z,17.08
2018-06-25T02:48:39.527Z,17.07
2018-06-25T02:49:39.536Z,17.04
2018-06-25T02:50:39.507Z,17.05
2018-06-25T02:51:39.508Z,17.05
2018-06-25T02:52:39.554Z,17.06
2018-06-25T02:53:39.550Z,17.04
2018-06-25T02:54:39.521Z,17.06
2018-06-25T02:55:39.509Z,17.04
2018-06-25T02:56:39.534Z,17.06
2018-06-25T02:57:39.625Z,17.04
2018-06-25T02:58:39.496Z,17.06
2018-06-25T02:59:39.613Z,17.03
2018-06-25T03:00:39.532Z,16.97
2018-06-25T03:01:39.607Z,16.98
2018-06-25T03:02:39.511Z,16.93
2018-06-25T03:03:39.509Z,16.92
2018-06-25T03:04:39.617Z,16.86
2018-06-25T03:05:39.555Z,16.84
2018-06-25T03:06:39.550Z,16.84
2018-06-25T03:07:39.515Z,16.84
2018-06-25T03:08:39.570Z,16.83
2018-06-25T03:09:39.550Z,16.8
2018-06-25T03:10:39.559Z,16.81
2018-06-25T03:11:39.560Z,16.82
2018-06-25T03:12:39.493Z,16.83
2018-06-25T03:13:39.530Z,16.83
2018-06-25T03:14:39.519Z,16.75
2018-06-25T03:15:39.660Z,16.78
2018-06-25T03:16:39.519Z,16.78
2018-06-25T03:17:39.551Z,16.78
2018-06-25T03:18:39.504Z,16.71
2018-06-25T03:19:39.649Z,16.67
2018-06-25T03:20:39.516Z,16.68
2018-06-25T03:21:39.521Z,16.68
2018-06-25T03:22:39.547Z,16.7
2018-06-25T03:23:39.551Z,16.7
2018-06-25T03:24:39.616Z,16.69
2018-06-25T03:25:39.504Z,16.7
2018-06-25T03:26:39.537Z,16.68
2018-06-25T03:27:39.500Z,16.69
2018-06-25T03:28:39.611Z,16.67
2018-06-25T03:29:39.546Z,16.64
2018-06-25T03:30:39.657Z,16.63
2018-06-25T03:31:39.562Z,16.61
2018-06-25T03:32:39.531Z,16.6
2018-06-25T03:33:39.543Z,16.59
2018-06-25T03:34:39.549Z,16.5
2018-06-25T03:35:39.516Z,16.42
2018-06-25T03:36:39.917Z,16.45
2018-06-25T03:37:39.527Z,16.44
2018-06-25T03:38:39.562Z,16.47
2018-06-25T03:39:39.540Z,16.46
2018-06-25T03:40:39.600Z,16.48
2018-06-25T03:41:39.509Z,16.51
2018-06-25T03:42:39.728Z,16.51
2018-06-25T03:43:39.579Z,16.47
2018-06-25T03:44:39.538Z,16.46
2018-06-25T03:45:39.557Z,16.44
2018-06-25T03:46:39.562Z,16.42
2018-06-25T03:47:39.531Z,16.46
2018-06-25T03:48:39.576Z,16.46
2018-06-25T03:49:39.553Z,16.47
2018-06-25T03:50:39.590Z,16.47
2018-06-25T03:51:39.607Z,16.48
2018-06-25T03:52:39.564Z,16.49
2018-06-25T03:53:39.551Z,16.52
2018-06-25T03:54:39.554Z,16.51
2018-06-25T03:55:39.586Z,16.51
2018-06-25T03:56:39.567Z,16.49
2018-06-25T03:57:39.565Z,16.46
2018-06-25T03:58:39.553Z,16.47
2018-06-25T03:59:39.542Z,16.47
2018-06-25T04:00:39.539Z,16.51
2018-06-25T04:01:39.589Z,16.48
2018-06-25T04:02:39.652Z,16.52
2018-06-25T04:03:39.550Z,16.49
2018-06-25T04:04:39.718Z,16.48
2018-06-25T04:05:39.528Z,16.48
2018-06-25T04:06:39.570Z,16.47
2018-06-25T04:07:39.553Z,16.47
2018-06-25T04:08:39.580Z,16.47
2018-06-25T04:09:39.603Z,16.45
2018-06-25T04:10:39.619Z,16.44
2018-06-25T04:11:39.601Z,16.4
2018-06-25T04:12:39.647Z,16.37
2018-06-25T04:13:39.547Z,16.38
2018-06-25T04:14:39.623Z,16.37
2018-06-25T04:15:39.536Z,16.37
2018-06-25T04:16:39.528Z,16.37
2018-06-25T04:17:39.590Z,16.37
2018-06-25T04:18:39.607Z,16.34
2018-06-25T04:19:39.621Z,16.36
2018-06-25T04:20:40.111Z,16.35
2018-06-25T04:21:39.604Z,16.35
2018-06-25T04:22:39.595Z,16.35
2018-06-25T04:23:40.047Z,16.35
2018-06-25T04:24:39.899Z,16.35
2018-06-25T04:25:39.588Z,16.34
2018-06-25T04:26:39.547Z,16.35
2018-06-25T04:27:39.564Z,16.36
2018-06-25T04:28:39.650Z,16.39
2018-06-25T04:29:39.718Z,16.37
2018-06-25T04:30:40.163Z,16.4
2018-06-25T04:31:39.547Z,16.4
2018-06-25T04:32:39.606Z,16.41
2018-06-25T04:33:39.582Z,16.41
2018-06-25T04:34:39.575Z,16.4
2018-06-25T04:35:39.725Z,16.41
2018-06-25T04:36:39.684Z,16.39
2018-06-25T04:37:39.569Z,16.37
2018-06-25T04:38:39.575Z,16.4
2018-06-25T04:39:39.784Z,16.39
2018-06-25T04:40:39.568Z,16.42
2018-06-25T04:41:39.565Z,16.42
2018-06-25T04:42:39.568Z,16.41
2018-06-25T04:43:39.585Z,16.41
2018-06-25T04:44:39.614Z,16.41
2018-06-25T04:45:39.654Z,16.41
2018-06-25T04:46:39.635Z,16.41
2018-06-25T04:47:39.560Z,16.41
2018-06-25T04:48:39.789Z,16.42
2018-06-25T04:49:39.720Z,16.42
2018-06-25T04:50:39.546Z,16.42
2018-06-25T04:51:39.618Z,16.42
2018-06-25T04:52:39.561Z,16.41
2018-06-25T04:53:39.542Z,16.44
2018-06-25T04:54:39.568Z,16.45
2018-06-25T04:55:39.554Z,16.43
2018-06-25T04:56:39.564Z,16.45
2018-06-25T04:57:39.658Z,16.4
2018-06-25T04:58:39.632Z,16.37
2018-06-25T04:59:39.599Z,16.39
2018-06-25T05:00:39.572Z,16.34
2018-06-25T05:01:39.619Z,16.35
2018-06-25T05:02:39.561Z,16.35
2018-06-25T05:03:39.584Z,16.33
2018-06-25T05:04:39.580Z,16.31
2018-06-25T05:05:39.568Z,16.34
2018-06-25T05:06:39.560Z,16.19
2018-06-25T05:07:39.582Z,16.25
2018-06-25T05:08:39.587Z,16.3
2018-06-25T05:09:39.607Z,16.29
2018-06-25T05:10:39.605Z,16.32
2018-06-25T05:11:39.639Z,16.33
2018-06-25T05:12:39.749Z,16.28
2018-06-25T05:13:39.613Z,16.32
2018-06-25T05:14:39.622Z,16.33
2018-06-25T05:15:39.600Z,16.33
2018-06-25T05:16:39.631Z,16.34
2018-06-25T05:17:39.570Z,16.33
2018-06-25T05:18:39.584Z,16.3
2018-06-25T05:19:39.607Z,16.3
2018-06-25T05:20:39.628Z,16.26
2018-06-25T05:21:39.709Z,16.29
2018-06-25T05:22:39.612Z,16.32
2018-06-25T05:23:40.194Z,16.35
2018-06-25T05:24:39.580Z,16.38
2018-06-25T05:25:39.625Z,16.39
2018-06-25T05:26:39.713Z,16.4
2018-06-25T05:27:39.601Z,16.42
2018-06-25T05:28:39.645Z,16.46
2018-06-25T05:29:39.626Z,16.44
2018-06-25T05:30:39.814Z,16.41
2018-06-25T05:31:39.626Z,16.43
2018-06-25T05:32:39.772Z,16.45
2018-06-25T05:33:39.615Z,16.48
2018-06-25T05:34:39.760Z,16.48
2018-06-25T05:35:39.697Z,16.51
2018-06-25T05:36:39.764Z,16.5
2018-06-25T05:37:39.583Z,16.5
2018-06-25T05:38:39.590Z,16.51
2018-06-25T05:39:40.009Z,16.52
2018-06-25T05:40:39.619Z,16.52
2018-06-25T05:41:39.610Z,16.53
2018-06-25T05:42:39.715Z,16.54
2018-06-25T05:43:39.607Z,16.53
2018-06-25T05:44:39.605Z,16.55
2018-06-25T05:45:39.611Z,16.55
2018-06-25T05:46:39.617Z,16.6
2018-06-25T05:47:39.628Z,16.55
2018-06-25T05:48:39.656Z,16.58
2018-06-25T05:49:39.658Z,16.59
2018-06-25T05:50:39.641Z,16.6
2018-06-25T05:51:39.608Z,16.65
2018-06-25T05:52:39.597Z,16.62
2018-06-25T05:53:39.667Z,16.59
2018-06-25T05:54:39.630Z,16.63
2018-06-25T05:55:39.664Z,16.63
2018-06-25T05:56:39.626Z,16.62
2018-06-25T05:57:39.620Z,16.66
2018-06-25T05:58:39.794Z,16.56
2018-06-25T05:59:39.740Z,16.62
2018-06-25T06:00:39.605Z,16.57
2018-06-25T06:01:39.628Z,16.6
2018-06-25T06:02:39.924Z,16.59
2018-06-25T06:03:39.630Z,16.59
2018-06-25T06:04:39.633Z,16.6
2018-06-25T06:05:39.661Z,16.63
2018-06-25T06:06:39.637Z,16.65
2018-06-25T06:07:39.645Z,16.64
2018-06-25T06:08:39.611Z,16.55
2018-06-25T06:09:39.628Z,16.53
2018-06-25T06:10:39.605Z,16.54
2018-06-25T06:11:39.785Z,16.53
2018-06-25T06:12:39.689Z,16.54
2018-06-25T06:13:40.817Z,16.57
2018-06-25T06:14:40.833Z,16.62
2018-06-25T06:15:39.674Z,16.61
2018-06-25T06:16:39.638Z,16.63
2018-06-25T06:17:39.736Z,16.64
2018-06-25T06:18:39.725Z,16.64
2018-06-25T06:19:39.745Z,16.62
2018-06-25T06:20:39.649Z,16.61
2018-06-25T06:21:39.943Z,16.61
2018-06-25T06:22:39.665Z,16.55
2018-06-25T06:23:39.646Z,16.55
2018-06-25T06:24:39.766Z,16.53
2018-06-25T06:25:39.619Z,16.55
2018-06-25T06:26:39.786Z,16.58
2018-06-25T06:27:39.804Z,16.61
2018-06-25T06:28:39.657Z,16.56
2018-06-25T06:29:39.819Z,16.59
2018-06-25T06:30:39.837Z,16.62
2018-06-25T06:31:40.236Z,16.63
2018-06-25T06:32:40.754Z,16.61
2018-06-25T06:33:39.841Z,16.63
2018-06-25T06:34:39.711Z,16.64
2018-06-25T06:35:39.740Z,16.67
2018-06-25T06:36:39.649Z,16.67
2018-06-25T06:37:39.860Z,16.7
2018-06-25T06:38:39.780Z,16.7
2018-06-25T06:39:39.860Z,16.68
2018-06-25T06:40:39.797Z,16.68
2018-06-25T06:41:39.892Z,16.67
2018-06-25T06:42:39.735Z,16.7
2018-06-25T06:43:39.796Z,16.74
2018-06-25T06:44:39.791Z,16.73
2018-06-25T06:45:39.698Z,16.72
2018-06-25T06:46:39.913Z,16.72
2018-06-25T06:47:39.817Z,16.75
2018-06-25T06:48:39.808Z,16.79
2018-06-25T06:49:39.819Z,16.8
2018-06-25T06:50:39.727Z,16.81
2018-06-25T06:51:39.753Z,16.81
2018-06-25T06:52:39.745Z,16.8
2018-06-25T06:53:54.636Z,16.78
2018-06-25T06:54:39.776Z,16.81
2018-06-25T06:55:39.670Z,16.77
2018-06-25T06:57:40.181Z,16.83
2018-06-25T06:58:39.647Z,16.85
2018-06-25T06:59:39.652Z,16.86
2018-06-25T07:00:39.841Z,16.89
2018-06-25T07:01:39.658Z,16.89
2018-06-25T07:02:39.918Z,16.85
2018-06-25T07:03:39.697Z,16.9
2018-06-25T07:04:40.136Z,16.91
2018-06-25T07:05:39.755Z,16.91
2018-06-25T07:06:39.651Z,16.85
2018-06-25T07:07:39.655Z,16.85
2018-06-25T07:08:39.795Z,16.88
2018-06-25T07:09:39.805Z,16.86
2018-06-25T07:10:39.711Z,16.89
2018-06-25T07:11:39.864Z,16.85
2018-06-25T07:12:39.840Z,16.89
2018-06-25T07:13:39.676Z,16.91
2018-06-25T07:14:39.642Z,16.93
2018-06-25T07:15:39.843Z,16.97
2018-06-25T07:16:39.664Z,17.01
2018-06-25T07:17:39.728Z,17.06
2018-06-25T07:18:39.705Z,17.06
2018-06-25T07:19:39.676Z,17.04
2018-06-25T07:20:40.055Z,16.99
2018-06-25T07:21:39.681Z,16.93
2018-06-25T07:22:39.812Z,16.95
2018-06-25T07:23:39.666Z,16.98
2018-06-25T07:24:39.878Z,17.02
2018-06-25T07:25:39.709Z,17.05
2018-06-25T07:26:39.699Z,17
2018-06-25T07:27:39.678Z,16.99
2018-06-25T07:28:39.656Z,16.99
2018-06-25T07:29:39.678Z,17
2018-06-25T07:30:39.773Z,17.05
2018-06-25T07:31:39.684Z,17.07
2018-06-25T07:32:39.661Z,17.11
2018-06-25T07:33:39.671Z,17.12
2018-06-25T07:34:39.650Z,17.16
2018-06-25T07:35:39.719Z,17.18
2018-06-25T07:36:39.659Z,17.17
2018-06-25T07:37:39.669Z,17.17
2018-06-25T07:38:39.682Z,17.2
2018-06-25T07:39:39.710Z,17.29
2018-06-25T07:40:39.749Z,17.31
2018-06-25T07:41:39.748Z,17.32
2018-06-25T07:42:39.691Z,17.31
2018-06-25T07:43:39.671Z,17.33
2018-06-25T07:44:39.897Z,17.37
2018-06-25T07:45:39.682Z,17.33
2018-06-25T07:46:39.689Z,17.33
2018-06-25T07:47:39.772Z,17.37
2018-06-25T07:48:39.721Z,17.42
2018-06-25T07:49:39.705Z,17.45
2018-06-25T07:50:39.714Z,17.5
2018-06-25T07:51:39.719Z,17.55
2018-06-25T07:52:39.681Z,17.56
2018-06-25T07:53:40.301Z,17.55
2018-06-25T07:54:39.701Z,17.57
2018-06-25T07:55:39.706Z,17.63
2018-06-25T07:56:39.834Z,17.64
2018-06-25T07:57:39.764Z,17.65
2018-06-25T07:58:39.725Z,17.69
2018-06-25T07:59:39.721Z,17.71
2018-06-25T08:00:39.683Z,17.67
2018-06-25T08:01:39.790Z,17.71
2018-06-25T08:02:39.704Z,17.72
2018-06-25T08:03:40.270Z,17.68
2018-06-25T08:04:39.714Z,17.71
2018-06-25T08:05:39.719Z,17.78
2018-06-25T08:06:39.714Z,17.81
2018-06-25T08:07:39.712Z,17.83
2018-06-25T08:08:39.870Z,17.85
2018-06-25T08:09:39.881Z,17.89
2018-06-25T08:10:39.981Z,17.88
2018-06-25T08:11:39.784Z,17.84
2018-06-25T08:12:39.772Z,17.88
2018-06-25T08:13:39.883Z,17.92
2018-06-25T08:14:39.711Z,17.97
2018-06-25T08:15:39.892Z,17.97
2018-06-25T08:16:40.865Z,17.91
2018-06-25T08:17:39.710Z,17.86
2018-06-25T08:18:39.930Z,17.87
2018-06-25T08:19:39.738Z,17.87
2018-06-25T08:20:39.942Z,17.87
2018-06-25T08:21:39.850Z,17.88
2018-06-25T08:22:39.704Z,17.88
2018-06-25T08:23:39.692Z,17.85
2018-06-25T08:24:39.696Z,17.87
2018-06-25T08:25:39.696Z,17.91
2018-06-25T08:26:39.761Z,17.88
2018-06-25T08:27:39.868Z,17.89
2018-06-25T08:28:39.711Z,17.88
2018-06-25T08:29:40.323Z,17.87
2018-06-25T08:30:39.776Z,17.88
2018-06-25T08:31:39.922Z,17.86
2018-06-25T08:32:39.700Z,17.92
2018-06-25T08:33:39.679Z,17.89
2018-06-25T08:34:39.722Z,17.93
2018-06-25T08:35:39.714Z,17.94
2018-06-25T08:36:39.729Z,17.97
2018-06-25T08:37:39.977Z,18.03
2018-06-25T08:38:39.697Z,18.1
2018-06-25T08:39:39.700Z,18.13
2018-06-25T08:40:39.701Z,18.22
2018-06-25T08:41:39.887Z,18.2
2018-06-25T08:42:39.785Z,18.26
2018-06-25T08:43:39.933Z,18.44
2018-06-25T08:44:39.916Z,18.44
2018-06-25T08:45:39.725Z,18.46
2018-06-25T08:46:39.755Z,18.47
2018-06-25T08:47:39.722Z,18.46
2018-06-25T08:48:39.730Z,18.48
2018-06-25T08:49:40.965Z,18.55
2018-06-25T08:50:39.747Z,18.53
2018-06-25T08:51:40.195Z,18.52
2018-06-25T08:52:39.769Z,18.58
2018-06-25T08:53:39.765Z,18.67
2018-06-25T08:54:39.773Z,18.78
2018-06-25T08:55:39.919Z,18.68
2018-06-25T08:56:39.755Z,18.69
2018-06-25T08:57:39.719Z,18.75
2018-06-25T08:58:39.837Z,18.79
2018-06-25T08:59:39.742Z,18.84
2018-06-25T09:00:39.735Z,18.84
2018-06-25T09:01:39.758Z,18.84
2018-06-25T09:02:39.829Z,19.01
2018-06-25T09:03:39.729Z,19.18
2018-06-25T09:04:39.837Z,19.17
2018-06-25T09:05:39.800Z,19.11
2018-06-25T09:06:39.759Z,19.04
2018-06-25T09:07:39.771Z,19.05
2018-06-25T09:08:39.764Z,19.09
2018-06-25T09:09:40.497Z,19.1
2018-06-25T09:10:39.759Z,19.16
2018-06-25T09:11:39.814Z,19.11
2018-06-25T09:12:39.719Z,19.11
2018-06-25T09:13:39.756Z,19.13
2018-06-25T09:14:39.916Z,19.25
2018-06-25T09:15:39.988Z,19.26
2018-06-25T09:16:39.725Z,19.28
2018-06-25T09:17:39.912Z,19.29
2018-06-25T09:18:39.784Z,19.32
2018-06-25T09:19:39.734Z,19.34
2018-06-25T09:20:39.727Z,19.32
2018-06-25T09:21:39.736Z,19.34
2018-06-25T09:22:39.942Z,19.33
2018-06-25T09:23:39.760Z,19.27
2018-06-25T09:24:39.755Z,19.26
2018-06-25T09:25:39.765Z,19.29
2018-06-25T09:26:39.733Z,19.35
2018-06-25T09:27:40.571Z,19.41
2018-06-25T09:28:39.770Z,19.44
2018-06-25T09:29:39.897Z,19.6
2018-06-25T09:30:39.767Z,19.66
2018-06-25T09:31:39.941Z,19.61
2018-06-25T09:32:39.751Z,19.68
2018-06-25T09:33:39.751Z,19.71
2018-06-25T09:34:39.927Z,19.63
2018-06-25T09:35:39.762Z,19.71
2018-06-25T09:36:39.791Z,19.71
2018-06-25T09:37:39.876Z,19.72
2018-06-25T09:38:39.750Z,19.72
2018-06-25T09:39:39.759Z,19.77
2018-06-25T09:40:39.761Z,19.82
2018-06-25T09:41:42.021Z,19.78
2018-06-25T09:42:39.768Z,19.85
2018-06-25T09:43:39.774Z,19.8
2018-06-25T09:44:39.752Z,19.78
2018-06-25T09:45:39.765Z,19.73
2018-06-25T09:46:39.905Z,19.65
2018-06-25T09:47:39.742Z,19.68
2018-06-25T09:48:39.748Z,19.73
2018-06-25T09:49:39.866Z,19.7
2018-06-25T09:50:39.785Z,19.73
2018-06-25T09:51:39.771Z,19.74
2018-06-25T09:52:39.760Z,19.77
2018-06-25T09:53:39.788Z,19.78
2018-06-25T09:54:39.941Z,19.76
2018-06-25T09:55:39.790Z,19.9
2018-06-25T09:56:39.779Z,19.98
2018-06-25T09:57:39.782Z,19.99
2018-06-25T09:58:39.813Z,20.04
2018-06-25T09:59:39.811Z,20.13
2018-06-25T10:00:39.788Z,20.14
2018-06-25T10:01:39.810Z,19.86
2018-06-25T10:02:39.791Z,19.89
2018-06-25T10:03:39.777Z,19.92
2018-06-25T10:04:40.068Z,19.92
2018-06-25T10:05:39.934Z,19.92
2018-06-25T10:06:39.868Z,19.97
2018-06-25T10:07:39.864Z,20.03
2018-06-25T10:08:40.135Z,20.02
2018-06-25T10:09:40.055Z,20.01
2018-06-25T10:10:40.658Z,19.97
2018-06-25T10:11:39.873Z,20.07
2018-06-25T10:12:39.897Z,20.01
2018-06-25T10:13:39.909Z,20.06
2018-06-25T10:14:39.810Z,20.08
2018-06-25T10:15:39.799Z,20.08
2018-06-25T10:16:40.164Z,19.86
2018-06-25T10:17:39.800Z,19.88
2018-06-25T10:18:39.883Z,19.91
2018-06-25T10:19:40.051Z,19.99
2018-06-25T10:20:39.862Z,20
2018-06-25T10:21:39.943Z,20.04
2018-06-25T10:22:39.835Z,20.11
2018-06-25T10:23:39.804Z,20.18
2018-06-25T10:24:39.781Z,20.31
2018-06-25T10:25:39.951Z,20.31
2018-06-25T10:26:39.892Z,20.23
2018-06-25T10:27:39.816Z,20.33
2018-06-25T10:28:39.806Z,20.37
2018-06-25T10:29:39.858Z,20.34
2018-06-25T10:30:39.832Z,20.37
2018-06-25T10:31:39.926Z,20.42
2018-06-25T10:32:39.880Z,20.48
2018-06-25T10:33:39.795Z,20.45
2018-06-25T10:34:40.100Z,20.49
2018-06-25T10:35:39.799Z,20.5
2018-06-25T10:36:39.797Z,20.45
2018-06-25T10:37:39.919Z,20.39
2018-06-25T10:38:39.976Z,20.5
2018-06-25T10:39:39.940Z,20.36
2018-06-25T10:40:39.885Z,20.3
2018-06-25T10:41:39.846Z,20.34
2018-06-25T10:42:40.982Z,20.27
2018-06-25T10:43:39.811Z,20.25
2018-06-25T10:44:40.228Z,20.26
2018-06-25T10:45:39.806Z,20.3
2018-06-25T10:46:39.880Z,20.36
2018-06-25T10:47:39.828Z,20.42
2018-06-25T10:48:39.836Z,20.49
2018-06-25T10:49:39.882Z,20.57
2018-06-25T10:50:39.934Z,20.6
2018-06-25T10:51:39.844Z,20.57
2018-06-25T10:52:39.815Z,20.67
2018-06-25T10:53:39.846Z,20.72
2018-06-25T10:54:39.828Z,20.69
2018-06-25T10:55:39.821Z,20.67
2018-06-25T10:56:39.791Z,20.66
2018-06-25T10:57:39.857Z,20.71
2018-06-25T10:58:39.906Z,20.73
2018-06-25T10:59:41.582Z,20.69
2018-06-25T11:00:39.821Z,20.64
2018-06-25T11:01:39.830Z,20.47
2018-06-25T11:02:39.846Z,20.42
2018-06-25T11:03:39.812Z,20.44
2018-06-25T11:04:39.849Z,20.51
2018-06-25T11:05:40.002Z,20.51
2018-06-25T11:06:39.900Z,20.61
2018-06-25T11:07:42.321Z,20.56
2018-06-25T11:08:39.897Z,20.54
2018-06-25T11:09:39.877Z,20.59
2018-06-25T11:10:39.790Z,20.62
2018-06-25T11:11:39.805Z,20.5
2018-06-25T11:12:40.321Z,20.43
2018-06-25T11:13:39.840Z,20.41
2018-06-25T11:14:39.850Z,20.39
2018-06-25T11:15:39.901Z,20.44
2018-06-25T11:16:39.826Z,20.48
2018-06-25T11:17:39.872Z,20.54
2018-06-25T11:18:39.845Z,20.53
2018-06-25T11:19:39.882Z,20.51
2018-06-25T11:20:39.837Z,20.61
2018-06-25T11:21:39.818Z,20.66
2018-06-25T11:22:39.837Z,20.66
2018-06-25T11:23:39.831Z,20.74
2018-06-25T11:24:39.802Z,20.7
2018-06-25T11:25:39.829Z,20.73
2018-06-25T11:26:40.430Z,20.8
2018-06-25T11:27:41.515Z,20.83
2018-06-25T11:28:39.955Z,20.84
2018-06-25T11:29:39.889Z,20.95
2018-06-25T11:30:39.834Z,21.02
2018-06-25T11:31:39.867Z,21.09
2018-06-25T11:32:39.844Z,21.16
2018-06-25T11:33:39.840Z,21.41
2018-06-25T11:34:41.111Z,21.47
2018-06-25T11:35:39.863Z,21.4
2018-06-25T11:36:39.978Z,21.29
2018-06-25T11:37:39.950Z,21.26
2018-06-25T11:38:39.845Z,21.26
2018-06-25T11:39:39.837Z,21.33
2018-06-25T11:40:39.896Z,21.35
2018-06-25T11:41:39.854Z,21.46
2018-06-25T11:42:40.084Z,21.47
2018-06-25T11:43:39.893Z,21.46
2018-06-25T11:44:40.038Z,21.38
2018-06-25T11:45:39.832Z,21.31
2018-06-25T11:46:40.021Z,21.25
2018-06-25T11:47:39.945Z,21.21
2018-06-25T11:48:39.850Z,21.2
2018-06-25T11:49:39.865Z,21.09
2018-06-25T11:50:39.872Z,21.07
2018-06-25T11:51:40.345Z,21.11
2018-06-25T11:52:39.867Z,21.14
2018-06-25T11:53:39.882Z,21.14
2018-06-25T11:54:39.894Z,21.18
2018-06-25T11:55:40.112Z,21.15
2018-06-25T11:56:39.863Z,21.19
2018-06-25T11:57:39.835Z,21.24
2018-06-25T11:58:39.846Z,21.27
2018-06-25T11:59:39.820Z,21.19
2018-06-25T12:00:39.934Z,21.17
2018-06-25T12:01:40.280Z,21.22
2018-06-25T12:02:42.366Z,21.22
2018-06-25T12:03:39.877Z,21.29
2018-06-25T12:04:39.854Z,21.31
2018-06-25T12:05:39.873Z,21.26
2018-06-25T12:06:39.876Z,21.02
2018-06-25T12:07:39.866Z,21
2018-06-25T12:08:39.976Z,21.14
2018-06-25T12:09:39.923Z,21.11
2018-06-25T12:10:40.580Z,21.1
2018-06-25T12:11:39.999Z,21.3
2018-06-25T12:12:40.144Z,21.41
2018-06-25T12:13:40.291Z,21.46
2018-06-25T12:14:39.863Z,21.53
2018-06-25T12:15:39.952Z,21.55
2018-06-25T12:16:40.031Z,21.59
2018-06-25T12:17:39.943Z,21.47
2018-06-25T12:18:39.884Z,21.48
2018-06-25T12:19:40.474Z,21.43
2018-06-25T12:20:39.862Z,21.32
2018-06-25T12:21:40.072Z,21.23
2018-06-25T12:22:39.932Z,21.26
2018-06-25T12:23:40.299Z,21.31
2018-06-25T12:24:39.963Z,21.36
2018-06-25T12:25:39.923Z,21.46
2018-06-25T12:26:39.896Z,21.49
2018-06-25T12:27:40.466Z,21.51
2018-06-25T12:28:39.948Z,21.58
2018-06-25T12:29:40.525Z,21.57
2018-06-25T12:30:40.034Z,21.6
2018-06-25T12:31:40.050Z,21.65
2018-06-25T12:32:39.908Z,21.66
2018-06-25T12:33:39.898Z,21.64
2018-06-25T12:34:40.245Z,21.68
2018-06-25T12:35:39.886Z,21.66
2018-06-25T12:36:40.321Z,21.64
2018-06-25T12:37:40.302Z,21.59
2018-06-25T12:38:40.410Z,21.66
2018-06-25T12:39:39.943Z,21.64
2018-06-25T12:40:39.962Z,21.69
2018-06-25T12:41:39.933Z,21.69
2018-06-25T12:42:39.926Z,21.64
2018-06-25T12:43:39.890Z,21.58
2018-06-25T12:44:39.856Z,21.52
2018-06-25T12:45:39.911Z,21.58
2018-06-25T12:46:39.913Z,21.53
2018-06-25T12:47:39.939Z,21.48
2018-06-25T12:48:40.073Z,21.49
2018-06-25T12:49:39.926Z,21.5
2018-06-25T12:50:39.938Z,21.56
2018-06-25T12:51:39.918Z,21.6
2018-06-25T12:52:39.897Z,21.72
2018-06-25T12:53:39.963Z,21.72
2018-06-25T12:54:39.925Z,21.78
2018-06-25T12:55:39.898Z,21.69
2018-06-25T12:56:39.908Z,21.67